Terminal Aerodrome Forecast
Issued by NWS Austin/San Antonio, TX

Home | Current Version | Previous Version | Text Only | Print | Product List | Glossary On
Versions: 1 2 3 4 5 6 7 8 9 10 11 12 13 14 15 16 17 18 19 20
000
FTUS44 KEWX 200500
TAFDRT
TAF
KDRT 200530Z 2006/2106 11005KT P6SM BKN150
     FM201200 10007KT P6SM BKN015 OVC050
     FM201600 13008KT P6SM BKN035 BKN200=

USA.gov is the U.S. government's official web portal to all federal, state and local government web resources and services.